Odder, Denmark
Current Conditions -  °F | °C
As of 8:50 PM on Wednesday 17 Dec 2014 (Local Time) from EKAH Reporting Station
Overcast Overcast  
Wind Chill: 39°   Ceiling: 700
Heat Index: 39°   Visibility: 5mi
Dew Point: 36°   Wind: 2mph
Humidity: 87%   Direction: 210°SSW
Pressure: 29.53"   Gusts: NA
Location:  55.97°N, 10.15°E
Report Text: EKAH 171950Z AUTO 21002KT 8000NDV OVC007/// 04/02 Q1000
Loading
Personal Weather Stations






























Interactive Weather Map New forecast layout! Learn more

10-Day Weather Forecast

Advertisements
Track Severe Weather on mobile